sensor_id;sensor_type;location;lat;lon;timestamp;P1;durP1;ratioP1;P2;durP2;ratioP2
74959;SDS011;63518;49.572;1.106;2024-01-06T00:01:05;4.50;;;2.10;;
74959;SDS011;63518;49.572;1.106;2024-01-06T00:03:36;5.63;;;1.77;;
74959;SDS011;63518;49.572;1.106;2024-01-06T00:06:03;3.92;;;1.70;;
74959;SDS011;63518;49.572;1.106;2024-01-06T00:08:30;4.80;;;1.73;;
74959;SDS011;63518;49.572;1.106;2024-01-06T00:10:57;5.22;;;2.10;;
74959;SDS011;63518;49.572;1.106;2024-01-06T00:13:23;6.80;;;1.92;;
74959;SDS011;63518;49.572;1.106;2024-01-06T00:15:50;5.70;;;2.33;;
74959;SDS011;63518;49.572;1.106;2024-01-06T00:18:17;4.93;;;1.38;;
74959;SDS011;63518;49.572;1.106;2024-01-06T00:20:44;4.50;;;1.50;;
74959;SDS011;63518;49.572;1.106;2024-01-06T00:23:10;5.15;;;1.90;;
74959;SDS011;63518;49.572;1.106;2024-01-06T00:25:37;5.30;;;2.20;;
74959;SDS011;63518;49.572;1.106;2024-01-06T00:28:04;5.40;;;1.98;;
74959;SDS011;63518;49.572;1.106;2024-01-06T00:30:31;4.07;;;1.75;;
74959;SDS011;63518;49.572;1.106;2024-01-06T00:32:58;4.95;;;1.70;;
74959;SDS011;63518;49.572;1.106;2024-01-06T00:35:24;4.93;;;2.33;;
74959;SDS011;63518;49.572;1.106;2024-01-06T00:37:51;5.38;;;1.90;;
74959;SDS011;63518;49.572;1.106;2024-01-06T00:40:18;5.45;;;1.90;;
74959;SDS011;63518;49.572;1.106;2024-01-06T00:42:46;6.20;;;2.33;;
74959;SDS011;63518;49.572;1.106;2024-01-06T00:45:12;3.58;;;1.58;;
74959;SDS011;63518;49.572;1.106;2024-01-06T00:47:39;2.95;;;1.30;;
74959;SDS011;63518;49.572;1.106;2024-01-06T00:50:06;6.20;;;1.45;;
74959;SDS011;63518;49.572;1.106;2024-01-06T00:52:33;3.25;;;1.05;;
74959;SDS011;63518;49.572;1.106;2024-01-06T00:55:00;4.18;;;1.65;;
74959;SDS011;63518;49.572;1.106;2024-01-06T00:57:27;5.32;;;2.15;;
74959;SDS011;63518;49.572;1.106;2024-01-06T00:59:54;4.10;;;1.80;;
74959;SDS011;63518;49.572;1.106;2024-01-06T01:02:21;5.35;;;1.95;;
74959;SDS011;63518;49.572;1.106;2024-01-06T01:04:48;5.30;;;1.20;;
74959;SDS011;63518;49.572;1.106;2024-01-06T01:07:14;5.28;;;1.80;;
74959;SDS011;63518;49.572;1.106;2024-01-06T01:09:42;2.03;;;0.77;;
74959;SDS011;63518;49.572;1.106;2024-01-06T01:12:09;4.30;;;1.55;;
74959;SDS011;63518;49.572;1.106;2024-01-06T01:14:35;3.20;;;1.23;;
74959;SDS011;63518;49.572;1.106;2024-01-06T01:17:02;3.20;;;1.23;;
74959;SDS011;63518;49.572;1.106;2024-01-06T01:19:30;3.20;;;1.25;;
74959;SDS011;63518;49.572;1.106;2024-01-06T01:21:57;5.13;;;1.95;;
74959;SDS011;63518;49.572;1.106;2024-01-06T01:24:24;8.05;;;1.73;;
74959;SDS011;63518;49.572;1.106;2024-01-06T01:26:51;1.70;;;0.85;;
74959;SDS011;63518;49.572;1.106;2024-01-06T01:29:17;1.88;;;0.80;;
74959;SDS011;63518;49.572;1.106;2024-01-06T01:31:46;2.95;;;1.50;;
74959;SDS011;63518;49.572;1.106;2024-01-06T01:34:13;1.42;;;0.60;;
74959;SDS011;63518;49.572;1.106;2024-01-06T01:36:41;1.83;;;0.85;;
74959;SDS011;63518;49.572;1.106;2024-01-06T01:39:08;1.98;;;0.77;;
74959;SDS011;63518;49.572;1.106;2024-01-06T01:41:35;4.20;;;1.52;;
74959;SDS011;63518;49.572;1.106;2024-01-06T01:44:01;2.13;;;0.68;;
74959;SDS011;63518;49.572;1.106;2024-01-06T01:46:29;4.57;;;0.73;;
74959;SDS011;63518;49.572;1.106;2024-01-06T01:48:57;0.75;;;0.30;;
74959;SDS011;63518;49.572;1.106;2024-01-06T01:51:29;1.27;;;0.43;;
74959;SDS011;63518;49.572;1.106;2024-01-06T01:53:57;0.13;;;0.10;;
74959;SDS011;63518;49.572;1.106;2024-01-06T01:56:27;1.67;;;0.80;;
74959;SDS011;63518;49.572;1.106;2024-01-06T01:59:08;1.85;;;0.80;;
74959;SDS011;63518;49.572;1.106;2024-01-06T02:04:03;2.10;;;1.00;;
74959;SDS011;63518;49.572;1.106;2024-01-06T02:06:30;1.75;;;0.73;;
74959;SDS011;63518;49.572;1.106;2024-01-06T02:08:57;3.05;;;1.25;;
74959;SDS011;63518;49.572;1.106;2024-01-06T02:11:24;2.22;;;0.68;;
74959;SDS011;63518;49.572;1.106;2024-01-06T02:13:50;2.22;;;0.80;;
74959;SDS011;63518;49.572;1.106;2024-01-06T02:16:17;3.17;;;0.95;;
74959;SDS011;63518;49.572;1.106;2024-01-06T02:18:44;1.50;;;0.50;;
74959;SDS011;63518;49.572;1.106;2024-01-06T02:21:11;2.30;;;0.75;;
74959;SDS011;63518;49.572;1.106;2024-01-06T02:23:38;3.42;;;1.33;;
74959;SDS011;63518;49.572;1.106;2024-01-06T02:26:04;2.65;;;0.75;;
74959;SDS011;63518;49.572;1.106;2024-01-06T02:28:31;2.95;;;1.10;;
74959;SDS011;63518;49.572;1.106;2024-01-06T02:30:57;4.00;;;1.35;;
74959;SDS011;63518;49.572;1.106;2024-01-06T02:33:24;1.27;;;0.47;;
74959;SDS011;63518;49.572;1.106;2024-01-06T02:35:51;2.55;;;1.52;;
74959;SDS011;63518;49.572;1.106;2024-01-06T02:38:18;1.48;;;0.50;;
74959;SDS011;63518;49.572;1.106;2024-01-06T02:40:45;1.30;;;0.70;;
74959;SDS011;63518;49.572;1.106;2024-01-06T02:43:11;1.60;;;0.70;;
74959;SDS011;63518;49.572;1.106;2024-01-06T02:45:38;4.25;;;1.25;;
74959;SDS011;63518;49.572;1.106;2024-01-06T02:48:05;1.90;;;0.73;;
74959;SDS011;63518;49.572;1.106;2024-01-06T02:50:32;1.50;;;0.70;;
74959;SDS011;63518;49.572;1.106;2024-01-06T02:52:59;3.25;;;1.70;;
74959;SDS011;63518;49.572;1.106;2024-01-06T02:55:25;1.67;;;0.77;;
74959;SDS011;63518;49.572;1.106;2024-01-06T02:57:52;2.60;;;0.88;;
74959;SDS011;63518;49.572;1.106;2024-01-06T03:00:19;2.55;;;0.95;;
74959;SDS011;63518;49.572;1.106;2024-01-06T03:02:46;1.77;;;0.68;;
74959;SDS011;63518;49.572;1.106;2024-01-06T03:05:13;2.60;;;1.30;;
74959;SDS011;63518;49.572;1.106;2024-01-06T03:07:39;1.88;;;0.95;;
74959;SDS011;63518;49.572;1.106;2024-01-06T03:10:06;1.77;;;0.60;;
74959;SDS011;63518;49.572;1.106;2024-01-06T03:12:33;2.10;;;0.73;;
74959;SDS011;63518;49.572;1.106;2024-01-06T03:15:00;3.00;;;0.95;;
74959;SDS011;63518;49.572;1.106;2024-01-06T03:17:26;2.80;;;1.00;;
74959;SDS011;63518;49.572;1.106;2024-01-06T03:19:55;2.17;;;1.02;;
74959;SDS011;63518;49.572;1.106;2024-01-06T03:22:22;3.72;;;0.93;;
74959;SDS011;63518;49.572;1.106;2024-01-06T03:24:49;3.45;;;1.42;;
74959;SDS011;63518;49.572;1.106;2024-01-06T03:27:16;2.80;;;1.10;;
74959;SDS011;63518;49.572;1.106;2024-01-06T03:29:43;1.23;;;0.70;;
74959;SDS011;63518;49.572;1.106;2024-01-06T03:32:09;3.00;;;0.98;;
74959;SDS011;63518;49.572;1.106;2024-01-06T03:34:36;1.35;;;0.52;;
74959;SDS011;63518;49.572;1.106;2024-01-06T03:37:03;1.90;;;0.65;;
74959;SDS011;63518;49.572;1.106;2024-01-06T03:39:30;1.00;;;0.40;;
74959;SDS011;63518;49.572;1.106;2024-01-06T03:41:57;2.17;;;0.70;;
74959;SDS011;63518;49.572;1.106;2024-01-06T03:44:23;1.02;;;0.40;;
74959;SDS011;63518;49.572;1.106;2024-01-06T03:46:50;0.65;;;0.20;;
74959;SDS011;63518;49.572;1.106;2024-01-06T03:49:17;2.00;;;0.70;;
74959;SDS011;63518;49.572;1.106;2024-01-06T03:51:47;0.88;;;0.50;;
74959;SDS011;63518;49.572;1.106;2024-01-06T03:54:14;0.85;;;0.40;;
74959;SDS011;63518;49.572;1.106;2024-01-06T03:56:41;0.90;;;0.45;;
74959;SDS011;63518;49.572;1.106;2024-01-06T03:59:08;1.58;;;0.55;;
74959;SDS011;63518;49.572;1.106;2024-01-06T04:01:35;1.05;;;0.40;;
74959;SDS011;63518;49.572;1.106;2024-01-06T04:04:02;1.00;;;0.47;;
74959;SDS011;63518;49.572;1.106;2024-01-06T04:06:29;1.15;;;0.63;;
74959;SDS011;63518;49.572;1.106;2024-01-06T04:08:58;2.55;;;0.57;;
74959;SDS011;63518;49.572;1.106;2024-01-06T04:11:25;1.20;;;0.50;;
74959;SDS011;63518;49.572;1.106;2024-01-06T04:13:51;2.42;;;0.90;;
74959;SDS011;63518;49.572;1.106;2024-01-06T04:16:19;3.20;;;0.85;;
74959;SDS011;63518;49.572;1.106;2024-01-06T04:18:46;3.78;;;0.65;;
74959;SDS011;63518;49.572;1.106;2024-01-06T04:21:12;2.30;;;0.80;;
74959;SDS011;63518;49.572;1.106;2024-01-06T04:23:39;2.65;;;1.10;;
74959;SDS011;63518;49.572;1.106;2024-01-06T04:26:06;2.58;;;0.88;;
74959;SDS011;63518;49.572;1.106;2024-01-06T04:28:33;1.75;;;0.95;;
74959;SDS011;63518;49.572;1.106;2024-01-06T04:31:00;1.13;;;0.45;;
74959;SDS011;63518;49.572;1.106;2024-01-06T04:33:26;2.35;;;1.05;;
74959;SDS011;63518;49.572;1.106;2024-01-06T04:35:53;1.27;;;0.52;;
74959;SDS011;63518;49.572;1.106;2024-01-06T04:38:20;0.90;;;0.40;;
74959;SDS011;63518;49.572;1.106;2024-01-06T04:40:47;2.15;;;0.90;;
74959;SDS011;63518;49.572;1.106;2024-01-06T04:43:14;2.65;;;0.55;;
74959;SDS011;63518;49.572;1.106;2024-01-06T04:45:40;3.58;;;0.98;;
74959;SDS011;63518;49.572;1.106;2024-01-06T04:48:07;2.25;;;0.47;;
74959;SDS011;63518;49.572;1.106;2024-01-06T04:50:34;2.40;;;0.90;;
74959;SDS011;63518;49.572;1.106;2024-01-06T04:53:01;1.23;;;0.50;;
74959;SDS011;63518;49.572;1.106;2024-01-06T04:55:28;1.15;;;0.40;;
74959;SDS011;63518;49.572;1.106;2024-01-06T04:57:55;1.67;;;0.68;;
74959;SDS011;63518;49.572;1.106;2024-01-06T05:00:21;0.63;;;0.30;;
74959;SDS011;63518;49.572;1.106;2024-01-06T05:02:51;2.78;;;0.80;;
74959;SDS011;63518;49.572;1.106;2024-01-06T05:05:17;0.10;;;0.10;;
74959;SDS011;63518;49.572;1.106;2024-01-06T05:07:44;1.50;;;0.88;;
74959;SDS011;63518;49.572;1.106;2024-01-06T05:10:11;2.30;;;0.95;;
74959;SDS011;63518;49.572;1.106;2024-01-06T05:12:38;1.02;;;0.45;;
74959;SDS011;63518;49.572;1.106;2024-01-06T05:15:04;2.17;;;1.00;;
74959;SDS011;63518;49.572;1.106;2024-01-06T05:17:31;0.75;;;0.30;;
74959;SDS011;63518;49.572;1.106;2024-01-06T05:19:59;1.88;;;0.70;;
74959;SDS011;63518;49.572;1.106;2024-01-06T05:22:26;1.92;;;0.60;;
74959;SDS011;63518;49.572;1.106;2024-01-06T05:24:56;2.03;;;0.73;;
74959;SDS011;63518;49.572;1.106;2024-01-06T05:27:23;1.77;;;0.55;;
74959;SDS011;63518;49.572;1.106;2024-01-06T05:29:50;1.42;;;0.50;;
74959;SDS011;63518;49.572;1.106;2024-01-06T05:32:18;1.02;;;0.40;;
74959;SDS011;63518;49.572;1.106;2024-01-06T05:34:45;1.80;;;0.85;;
74959;SDS011;63518;49.572;1.106;2024-01-06T05:37:12;1.77;;;0.52;;
74959;SDS011;63518;49.572;1.106;2024-01-06T05:39:39;0.85;;;0.38;;
74959;SDS011;63518;49.572;1.106;2024-01-06T05:42:07;1.38;;;0.63;;
74959;SDS011;63518;49.572;1.106;2024-01-06T05:44:38;2.72;;;0.95;;
74959;SDS011;63518;49.572;1.106;2024-01-06T05:47:40;1.30;;;0.82;;
74959;SDS011;63518;49.572;1.106;2024-01-06T05:50:07;0.82;;;0.30;;
74959;SDS011;63518;49.572;1.106;2024-01-06T05:52:36;1.08;;;0.52;;
74959;SDS011;63518;49.572;1.106;2024-01-06T05:55:04;1.17;;;0.50;;
74959;SDS011;63518;49.572;1.106;2024-01-06T05:57:31;1.20;;;0.50;;
74959;SDS011;63518;49.572;1.106;2024-01-06T05:59:58;2.10;;;0.88;;
74959;SDS011;63518;49.572;1.106;2024-01-06T06:02:26;1.58;;;0.63;;
74959;SDS011;63518;49.572;1.106;2024-01-06T06:04:52;2.45;;;0.80;;
74959;SDS011;63518;49.572;1.106;2024-01-06T06:07:19;2.42;;;0.85;;
74959;SDS011;63518;49.572;1.106;2024-01-06T06:09:47;0.65;;;0.50;;
74959;SDS011;63518;49.572;1.106;2024-01-06T06:12:14;1.08;;;0.43;;
74959;SDS011;63518;49.572;1.106;2024-01-06T06:14:41;1.50;;;0.90;;
74959;SDS011;63518;49.572;1.106;2024-01-06T06:17:08;1.13;;;0.40;;
74959;SDS011;63518;49.572;1.106;2024-01-06T06:19:34;1.70;;;0.70;;
74959;SDS011;63518;49.572;1.106;2024-01-06T06:22:01;1.95;;;0.80;;
74959;SDS011;63518;49.572;1.106;2024-01-06T06:24:28;1.40;;;0.52;;
74959;SDS011;63518;49.572;1.106;2024-01-06T06:26:55;1.55;;;0.22;;
74959;SDS011;63518;49.572;1.106;2024-01-06T06:29:22;2.33;;;0.65;;
74959;SDS011;63518;49.572;1.106;2024-01-06T06:31:48;1.10;;;0.32;;
74959;SDS011;63518;49.572;1.106;2024-01-06T06:34:15;1.38;;;0.68;;
74959;SDS011;63518;49.572;1.106;2024-01-06T06:36:42;1.88;;;0.65;;
74959;SDS011;63518;49.572;1.106;2024-01-06T06:39:09;1.05;;;0.47;;
74959;SDS011;63518;49.572;1.106;2024-01-06T06:41:36;1.77;;;0.60;;
74959;SDS011;63518;49.572;1.106;2024-01-06T06:44:03;2.13;;;0.70;;
74959;SDS011;63518;49.572;1.106;2024-01-06T06:46:30;1.35;;;0.40;;
74959;SDS011;63518;49.572;1.106;2024-01-06T06:48:58;0.75;;;0.38;;
74959;SDS011;63518;49.572;1.106;2024-01-06T06:51:24;0.70;;;0.30;;
74959;SDS011;63518;49.572;1.106;2024-01-06T06:53:54;1.75;;;0.50;;
74959;SDS011;63518;49.572;1.106;2024-01-06T06:56:20;2.65;;;0.80;;
74959;SDS011;63518;49.572;1.106;2024-01-06T06:58:47;0.68;;;0.30;;
74959;SDS011;63518;49.572;1.106;2024-01-06T07:01:17;0.73;;;0.32;;
74959;SDS011;63518;49.572;1.106;2024-01-06T07:03:44;1.77;;;0.57;;
74959;SDS011;63518;49.572;1.106;2024-01-06T07:06:11;2.10;;;0.73;;
74959;SDS011;63518;49.572;1.106;2024-01-06T07:08:39;1.45;;;0.50;;
74959;SDS011;63518;49.572;1.106;2024-01-06T07:11:08;1.88;;;0.65;;
74959;SDS011;63518;49.572;1.106;2024-01-06T07:13:35;1.75;;;0.68;;
74959;SDS011;63518;49.572;1.106;2024-01-06T07:16:01;0.30;;;0.22;;
74959;SDS011;63518;49.572;1.106;2024-01-06T07:18:43;1.45;;;0.52;;
74959;SDS011;63518;49.572;1.106;2024-01-06T07:21:11;0.93;;;0.40;;
74959;SDS011;63518;49.572;1.106;2024-01-06T07:23:39;0.00;;;0.00;;
74959;SDS011;63518;49.572;1.106;2024-01-06T07:26:05;0.65;;;0.30;;
74959;SDS011;63518;49.572;1.106;2024-01-06T07:28:33;2.00;;;0.73;;
74959;SDS011;63518;49.572;1.106;2024-01-06T07:31:00;1.25;;;0.63;;
74959;SDS011;63518;49.572;1.106;2024-01-06T07:33:27;1.08;;;0.40;;
74959;SDS011;63518;49.572;1.106;2024-01-06T07:35:55;0.88;;;0.35;;
74959;SDS011;63518;49.572;1.106;2024-01-06T07:38:21;1.02;;;0.40;;
74959;SDS011;63518;49.572;1.106;2024-01-06T07:40:48;1.35;;;0.47;;
74959;SDS011;63518;49.572;1.106;2024-01-06T07:43:15;0.73;;;0.38;;
74959;SDS011;63518;49.572;1.106;2024-01-06T07:45:42;0.68;;;0.40;;
74959;SDS011;63518;49.572;1.106;2024-01-06T07:48:08;1.58;;;0.60;;
74959;SDS011;63518;49.572;1.106;2024-01-06T07:50:35;1.25;;;0.40;;
74959;SDS011;63518;49.572;1.106;2024-01-06T07:53:02;1.73;;;0.55;;
74959;SDS011;63518;49.572;1.106;2024-01-06T07:55:29;1.30;;;0.50;;
74959;SDS011;63518;49.572;1.106;2024-01-06T07:57:56;0.25;;;0.17;;
74959;SDS011;63518;49.572;1.106;2024-01-06T08:00:22;1.02;;;0.32;;
74959;SDS011;63518;49.572;1.106;2024-01-06T08:02:49;0.93;;;0.40;;
74959;SDS011;63518;49.572;1.106;2024-01-06T08:05:16;0.60;;;0.30;;
74959;SDS011;63518;49.572;1.106;2024-01-06T08:07:43;3.50;;;1.00;;
74959;SDS011;63518;49.572;1.106;2024-01-06T08:10:09;0.73;;;0.35;;
74959;SDS011;63518;49.572;1.106;2024-01-06T08:12:36;1.88;;;0.70;;
74959;SDS011;63518;49.572;1.106;2024-01-06T08:15:04;1.52;;;0.40;;
74959;SDS011;63518;49.572;1.106;2024-01-06T08:17:31;0.65;;;0.30;;
74959;SDS011;63518;49.572;1.106;2024-01-06T08:19:58;1.85;;;0.60;;
74959;SDS011;63518;49.572;1.106;2024-01-06T08:22:24;1.35;;;0.50;;
74959;SDS011;63518;49.572;1.106;2024-01-06T08:24:51;3.08;;;0.75;;
74959;SDS011;63518;49.572;1.106;2024-01-06T08:27:18;1.25;;;0.47;;
74959;SDS011;63518;49.572;1.106;2024-01-06T08:29:45;1.60;;;0.95;;
74959;SDS011;63518;49.572;1.106;2024-01-06T08:32:12;2.88;;;1.13;;
74959;SDS011;63518;49.572;1.106;2024-01-06T08:34:41;1.40;;;0.43;;
74959;SDS011;63518;49.572;1.106;2024-01-06T08:37:08;1.90;;;0.70;;
74959;SDS011;63518;49.572;1.106;2024-01-06T08:39:34;2.20;;;0.63;;
74959;SDS011;63518;49.572;1.106;2024-01-06T08:42:01;1.73;;;0.55;;
74959;SDS011;63518;49.572;1.106;2024-01-06T08:44:28;2.13;;;0.73;;
74959;SDS011;63518;49.572;1.106;2024-01-06T08:46:55;2.88;;;0.65;;
74959;SDS011;63518;49.572;1.106;2024-01-06T08:49:22;1.33;;;0.43;;
74959;SDS011;63518;49.572;1.106;2024-01-06T08:51:49;3.03;;;0.47;;
74959;SDS011;63518;49.572;1.106;2024-01-06T08:54:16;3.25;;;0.73;;
74959;SDS011;63518;49.572;1.106;2024-01-06T08:56:43;1.90;;;0.55;;
74959;SDS011;63518;49.572;1.106;2024-01-06T08:59:10;1.38;;;0.47;;
74959;SDS011;63518;49.572;1.106;2024-01-06T09:01:37;1.88;;;0.80;;
74959;SDS011;63518;49.572;1.106;2024-01-06T09:04:05;1.25;;;0.50;;
74959;SDS011;63518;49.572;1.106;2024-01-06T09:06:33;1.55;;;0.50;;
74959;SDS011;63518;49.572;1.106;2024-01-06T09:09:00;1.13;;;0.40;;
74959;SDS011;63518;49.572;1.106;2024-01-06T09:11:27;2.03;;;0.95;;
74959;SDS011;63518;49.572;1.106;2024-01-06T09:13:54;1.67;;;0.63;;
74959;SDS011;63518;49.572;1.106;2024-01-06T09:16:21;1.52;;;0.40;;
74959;SDS011;63518;49.572;1.106;2024-01-06T09:18:48;2.40;;;0.80;;
74959;SDS011;63518;49.572;1.106;2024-01-06T09:21:16;2.08;;;0.70;;
74959;SDS011;63518;49.572;1.106;2024-01-06T09:23:44;0.98;;;0.40;;
74959;SDS011;63518;49.572;1.106;2024-01-06T09:26:10;1.42;;;0.45;;
74959;SDS011;63518;49.572;1.106;2024-01-06T09:28:37;1.13;;;0.45;;
74959;SDS011;63518;49.572;1.106;2024-01-06T09:31:05;0.63;;;0.15;;
74959;SDS011;63518;49.572;1.106;2024-01-06T09:33:32;1.75;;;0.82;;
74959;SDS011;63518;49.572;1.106;2024-01-06T09:36:01;1.77;;;0.57;;
74959;SDS011;63518;49.572;1.106;2024-01-06T09:38:28;1.48;;;0.55;;
74959;SDS011;63518;49.572;1.106;2024-01-06T09:40:55;1.60;;;0.70;;
74959;SDS011;63518;49.572;1.106;2024-01-06T09:43:24;1.17;;;0.52;;
74959;SDS011;63518;49.572;1.106;2024-01-06T09:45:55;1.10;;;0.38;;
74959;SDS011;63518;49.572;1.106;2024-01-06T09:48:27;1.92;;;0.45;;
74959;SDS011;63518;49.572;1.106;2024-01-06T09:50:57;1.58;;;0.55;;
74959;SDS011;63518;49.572;1.106;2024-01-06T09:53:28;6.28;;;1.33;;
74959;SDS011;63518;49.572;1.106;2024-01-06T09:56:02;1.80;;;0.60;;
74959;SDS011;63518;49.572;1.106;2024-01-06T09:58:30;2.03;;;0.80;;
74959;SDS011;63518;49.572;1.106;2024-01-06T10:01:00;2.45;;;0.70;;
74959;SDS011;63518;49.572;1.106;2024-01-06T10:03:28;2.45;;;0.88;;
74959;SDS011;63518;49.572;1.106;2024-01-06T10:05:55;2.97;;;1.08;;
74959;SDS011;63518;49.572;1.106;2024-01-06T10:08:27;0.75;;;0.30;;
74959;SDS011;63518;49.572;1.106;2024-01-06T10:10:53;2.55;;;0.63;;
74959;SDS011;63518;49.572;1.106;2024-01-06T10:13:20;1.73;;;0.73;;
74959;SDS011;63518;49.572;1.106;2024-01-06T10:15:47;2.53;;;0.77;;
74959;SDS011;63518;49.572;1.106;2024-01-06T10:18:14;0.80;;;0.38;;
74959;SDS011;63518;49.572;1.106;2024-01-06T10:20:41;0.63;;;0.22;;
74959;SDS011;63518;49.572;1.106;2024-01-06T10:23:10;1.52;;;0.68;;
74959;SDS011;63518;49.572;1.106;2024-01-06T10:25:37;1.45;;;0.50;;
74959;SDS011;63518;49.572;1.106;2024-01-06T10:28:04;1.15;;;0.40;;
74959;SDS011;63518;49.572;1.106;2024-01-06T10:30:31;2.05;;;0.63;;
74959;SDS011;63518;49.572;1.106;2024-01-06T10:32:58;1.17;;;0.40;;
74959;SDS011;63518;49.572;1.106;2024-01-06T10:35:25;0.90;;;0.40;;
74959;SDS011;63518;49.572;1.106;2024-01-06T10:37:52;1.40;;;0.47;;
74959;SDS011;63518;49.572;1.106;2024-01-06T10:40:20;1.73;;;0.60;;
74959;SDS011;63518;49.572;1.106;2024-01-06T10:42:47;0.63;;;0.30;;
74959;SDS011;63518;49.572;1.106;2024-01-06T10:45:14;1.27;;;0.47;;
74959;SDS011;63518;49.572;1.106;2024-01-06T10:47:41;1.25;;;0.52;;
74959;SDS011;63518;49.572;1.106;2024-01-06T10:50:10;0.60;;;0.30;;
74959;SDS011;63518;49.572;1.106;2024-01-06T10:52:37;1.27;;;0.50;;
74959;SDS011;63518;49.572;1.106;2024-01-06T10:55:05;0.90;;;0.38;;
74959;SDS011;63518;49.572;1.106;2024-01-06T10:57:32;1.83;;;0.63;;
74959;SDS011;63518;49.572;1.106;2024-01-06T11:00:01;0.98;;;0.40;;
74959;SDS011;63518;49.572;1.106;2024-01-06T11:02:28;0.70;;;0.32;;
74959;SDS011;63518;49.572;1.106;2024-01-06T11:04:57;1.05;;;0.40;;
74959;SDS011;63518;49.572;1.106;2024-01-06T11:07:24;1.25;;;0.63;;
74959;SDS011;63518;49.572;1.106;2024-01-06T11:15:53;1.98;;;0.60;;
74959;SDS011;63518;49.572;1.106;2024-01-06T11:18:33;1.02;;;0.45;;
74959;SDS011;63518;49.572;1.106;2024-01-06T11:23:45;0.38;;;0.20;;
74959;SDS011;63518;49.572;1.106;2024-01-06T11:26:13;1.48;;;0.50;;
74959;SDS011;63518;49.572;1.106;2024-01-06T11:28:47;1.00;;;0.28;;
74959;SDS011;63518;49.572;1.106;2024-01-06T11:31:18;1.63;;;0.47;;
74959;SDS011;63518;49.572;1.106;2024-01-06T11:33:45;1.98;;;0.57;;
74959;SDS011;63518;49.572;1.106;2024-01-06T11:38:42;2.30;;;0.88;;
74959;SDS011;63518;49.572;1.106;2024-01-06T11:41:44;2.30;;;0.60;;
74959;SDS011;63518;49.572;1.106;2024-01-06T11:46:44;4.32;;;1.30;;
74959;SDS011;63518;49.572;1.106;2024-01-06T11:49:11;3.55;;;0.95;;
74959;SDS011;63518;49.572;1.106;2024-01-06T11:51:41;3.05;;;0.77;;
74959;SDS011;63518;49.572;1.106;2024-01-06T11:54:09;1.35;;;0.50;;
74959;SDS011;63518;49.572;1.106;2024-01-06T11:56:36;1.45;;;0.50;;
74959;SDS011;63518;49.572;1.106;2024-01-06T11:59:03;1.50;;;0.73;;
74959;SDS011;63518;49.572;1.106;2024-01-06T12:01:39;1.73;;;0.77;;
74959;SDS011;63518;49.572;1.106;2024-01-06T12:06:33;1.17;;;0.30;;
74959;SDS011;63518;49.572;1.106;2024-01-06T12:09:07;1.60;;;0.55;;
74959;SDS011;63518;49.572;1.106;2024-01-06T12:11:36;1.42;;;0.52;;
74959;SDS011;63518;49.572;1.106;2024-01-06T12:14:04;1.75;;;0.57;;
74959;SDS011;63518;49.572;1.106;2024-01-06T12:16:31;1.02;;;0.50;;
74959;SDS011;63518;49.572;1.106;2024-01-06T12:18:59;1.38;;;0.50;;
74959;SDS011;63518;49.572;1.106;2024-01-06T12:21:30;1.80;;;0.68;;
74959;SDS011;63518;49.572;1.106;2024-01-06T12:24:17;1.52;;;0.55;;
74959;SDS011;63518;49.572;1.106;2024-01-06T12:26:47;1.13;;;0.50;;
74959;SDS011;63518;49.572;1.106;2024-01-06T12:29:16;1.48;;;0.55;;
74959;SDS011;63518;49.572;1.106;2024-01-06T12:31:43;0.75;;;0.30;;
74959;SDS011;63518;49.572;1.106;2024-01-06T12:34:10;1.05;;;0.40;;
74959;SDS011;63518;49.572;1.106;2024-01-06T12:36:37;2.85;;;0.40;;
74959;SDS011;63518;49.572;1.106;2024-01-06T12:39:06;1.73;;;0.45;;
74959;SDS011;63518;49.572;1.106;2024-01-06T12:41:42;1.20;;;0.20;;
74959;SDS011;63518;49.572;1.106;2024-01-06T12:44:09;1.88;;;0.60;;
74959;SDS011;63518;49.572;1.106;2024-01-06T12:46:36;1.50;;;0.55;;
74959;SDS011;63518;49.572;1.106;2024-01-06T12:49:03;0.90;;;0.32;;
74959;SDS011;63518;49.572;1.106;2024-01-06T12:51:30;1.77;;;0.30;;
74959;SDS011;63518;49.572;1.106;2024-01-06T12:53:57;1.23;;;0.47;;
74959;SDS011;63518;49.572;1.106;2024-01-06T12:56:24;0.55;;;0.20;;
74959;SDS011;63518;49.572;1.106;2024-01-06T12:58:51;2.15;;;0.80;;
74959;SDS011;63518;49.572;1.106;2024-01-06T13:01:18;1.92;;;0.55;;
74959;SDS011;63518;49.572;1.106;2024-01-06T13:03:45;1.20;;;0.45;;
74959;SDS011;63518;49.572;1.106;2024-01-06T13:06:12;1.25;;;0.50;;
74959;SDS011;63518;49.572;1.106;2024-01-06T13:08:40;1.83;;;0.65;;
74959;SDS011;63518;49.572;1.106;2024-01-06T13:11:06;1.88;;;0.80;;
74959;SDS011;63518;49.572;1.106;2024-01-06T13:13:34;2.13;;;0.63;;
74959;SDS011;63518;49.572;1.106;2024-01-06T13:16:01;0.80;;;0.30;;
74959;SDS011;63518;49.572;1.106;2024-01-06T13:18:31;2.95;;;0.80;;
74959;SDS011;63518;49.572;1.106;2024-01-06T13:20:58;0.75;;;0.30;;
74959;SDS011;63518;49.572;1.106;2024-01-06T13:23:25;2.40;;;0.60;;
74959;SDS011;63518;49.572;1.106;2024-01-06T13:25:52;1.30;;;0.60;;
74959;SDS011;63518;49.572;1.106;2024-01-06T13:28:19;1.40;;;0.55;;
74959;SDS011;63518;49.572;1.106;2024-01-06T13:30:46;3.45;;;0.65;;
74959;SDS011;63518;49.572;1.106;2024-01-06T13:33:13;3.03;;;0.70;;
74959;SDS011;63518;49.572;1.106;2024-01-06T13:35:41;2.40;;;0.63;;
74959;SDS011;63518;49.572;1.106;2024-01-06T13:38:08;2.10;;;0.60;;
74959;SDS011;63518;49.572;1.106;2024-01-06T13:40:36;1.65;;;0.20;;
74959;SDS011;63518;49.572;1.106;2024-01-06T13:43:04;2.00;;;0.60;;
74959;SDS011;63518;49.572;1.106;2024-01-06T13:45:33;2.63;;;0.82;;
74959;SDS011;63518;49.572;1.106;2024-01-06T13:48:00;1.85;;;0.45;;
74959;SDS011;63518;49.572;1.106;2024-01-06T13:50:26;1.08;;;0.43;;
74959;SDS011;63518;49.572;1.106;2024-01-06T13:52:53;2.38;;;0.80;;
74959;SDS011;63518;49.572;1.106;2024-01-06T13:55:20;2.53;;;0.75;;
74959;SDS011;63518;49.572;1.106;2024-01-06T13:57:47;5.30;;;0.70;;
74959;SDS011;63518;49.572;1.106;2024-01-06T14:00:14;2.35;;;0.40;;
74959;SDS011;63518;49.572;1.106;2024-01-06T14:02:46;1.25;;;0.40;;
74959;SDS011;63518;49.572;1.106;2024-01-06T14:05:13;5.65;;;1.27;;
74959;SDS011;63518;49.572;1.106;2024-01-06T14:07:41;2.70;;;0.73;;
74959;SDS011;63518;49.572;1.106;2024-01-06T14:10:11;0.43;;;0.20;;
74959;SDS011;63518;49.572;1.106;2024-01-06T14:12:39;2.00;;;0.65;;
74959;SDS011;63518;49.572;1.106;2024-01-06T14:15:07;0.90;;;0.28;;
74959;SDS011;63518;49.572;1.106;2024-01-06T14:17:35;3.33;;;0.82;;
74959;SDS011;63518;49.572;1.106;2024-01-06T14:20:01;1.98;;;0.63;;
74959;SDS011;63518;49.572;1.106;2024-01-06T14:22:29;1.75;;;0.52;;
74959;SDS011;63518;49.572;1.106;2024-01-06T14:24:56;1.95;;;0.60;;
74959;SDS011;63518;49.572;1.106;2024-01-06T14:27:23;0.93;;;0.43;;
74959;SDS011;63518;49.572;1.106;2024-01-06T14:29:49;1.35;;;0.47;;
74959;SDS011;63518;49.572;1.106;2024-01-06T14:32:16;1.35;;;0.43;;
74959;SDS011;63518;49.572;1.106;2024-01-06T14:34:43;1.75;;;0.70;;
74959;SDS011;63518;49.572;1.106;2024-01-06T14:37:10;1.58;;;0.60;;
74959;SDS011;63518;49.572;1.106;2024-01-06T14:39:36;1.27;;;0.52;;
74959;SDS011;63518;49.572;1.106;2024-01-06T14:42:03;1.20;;;0.40;;
74959;SDS011;63518;49.572;1.106;2024-01-06T14:44:30;2.65;;;0.52;;
74959;SDS011;63518;49.572;1.106;2024-01-06T14:46:58;1.25;;;0.43;;
74959;SDS011;63518;49.572;1.106;2024-01-06T14:49:24;0.38;;;0.17;;
74959;SDS011;63518;49.572;1.106;2024-01-06T14:51:51;2.63;;;0.63;;
74959;SDS011;63518;49.572;1.106;2024-01-06T14:54:18;1.85;;;0.95;;
74959;SDS011;63518;49.572;1.106;2024-01-06T14:56:45;0.73;;;0.20;;
74959;SDS011;63518;49.572;1.106;2024-01-06T14:59:13;1.33;;;0.50;;
74959;SDS011;63518;49.572;1.106;2024-01-06T15:01:44;1.10;;;0.45;;
74959;SDS011;63518;49.572;1.106;2024-01-06T15:04:11;1.17;;;0.38;;
74959;SDS011;63518;49.572;1.106;2024-01-06T15:06:38;1.42;;;0.40;;
74959;SDS011;63518;49.572;1.106;2024-01-06T15:09:05;1.38;;;0.45;;